sensor_id;sensor_type;location;lat;lon;timestamp;temperature;humidity
70734;DHT22;58320;48.804;9.252;2023-04-25T00:01:31;8.90;69.20
70734;DHT22;58320;48.804;9.252;2023-04-25T00:04:01;8.90;69.60
70734;DHT22;58320;48.804;9.252;2023-04-25T00:06:28;8.80;69.60
70734;DHT22;58320;48.804;9.252;2023-04-25T00:08:57;8.80;69.90
70734;DHT22;58320;48.804;9.252;2023-04-25T00:11:23;8.80;69.90
70734;DHT22;58320;48.804;9.252;2023-04-25T00:13:49;8.80;70.10
70734;DHT22;58320;48.804;9.252;2023-04-25T00:16:18;8.80;70.20
70734;DHT22;58320;48.804;9.252;2023-04-25T00:18:44;8.70;70.50
70734;DHT22;58320;48.804;9.252;2023-04-25T00:21:11;8.70;71.10
70734;DHT22;58320;48.804;9.252;2023-04-25T00:23:37;8.70;71.20
70734;DHT22;58320;48.804;9.252;2023-04-25T00:26:04;8.70;71.60
70734;DHT22;58320;48.804;9.252;2023-04-25T00:28:30;8.70;72.00
70734;DHT22;58320;48.804;9.252;2023-04-25T00:30:55;8.70;72.10
70734;DHT22;58320;48.804;9.252;2023-04-25T00:33:21;8.60;72.40
70734;DHT22;58320;48.804;9.252;2023-04-25T00:35:47;8.60;72.90
70734;DHT22;58320;48.804;9.252;2023-04-25T00:38:12;8.60;72.80
70734;DHT22;58320;48.804;9.252;2023-04-25T00:40:38;8.60;73.00
70734;DHT22;58320;48.804;9.252;2023-04-25T00:43:04;8.50;73.10
70734;DHT22;58320;48.804;9.252;2023-04-25T00:45:30;8.50;73.30
70734;DHT22;58320;48.804;9.252;2023-04-25T00:47:56;8.50;72.70
70734;DHT22;58320;48.804;9.252;2023-04-25T00:50:23;8.50;72.60
70734;DHT22;58320;48.804;9.252;2023-04-25T00:52:49;8.50;72.20
70734;DHT22;58320;48.804;9.252;2023-04-25T00:55:15;8.50;71.90
70734;DHT22;58320;48.804;9.252;2023-04-25T00:57:42;8.50;71.90
70734;DHT22;58320;48.804;9.252;2023-04-25T01:00:09;8.50;72.10
70734;DHT22;58320;48.804;9.252;2023-04-25T01:02:36;8.50;72.10
70734;DHT22;58320;48.804;9.252;2023-04-25T01:05:03;8.50;72.10
70734;DHT22;58320;48.804;9.252;2023-04-25T01:07:29;8.50;72.40
70734;DHT22;58320;48.804;9.252;2023-04-25T01:09:55;8.50;72.50
70734;DHT22;58320;48.804;9.252;2023-04-25T01:12:22;8.50;72.20
70734;DHT22;58320;48.804;9.252;2023-04-25T01:14:48;8.50;72.10
70734;DHT22;58320;48.804;9.252;2023-04-25T01:17:14;8.50;72.00
70734;DHT22;58320;48.804;9.252;2023-04-25T01:19:41;8.50;71.90
70734;DHT22;58320;48.804;9.252;2023-04-25T01:22:07;8.50;72.00
70734;DHT22;58320;48.804;9.252;2023-04-25T01:24:35;8.50;72.20
70734;DHT22;58320;48.804;9.252;2023-04-25T01:27:02;8.60;71.60
70734;DHT22;58320;48.804;9.252;2023-04-25T01:29:29;8.60;71.90
70734;DHT22;58320;48.804;9.252;2023-04-25T01:31:55;8.60;72.10
70734;DHT22;58320;48.804;9.252;2023-04-25T01:34:21;8.60;72.40
70734;DHT22;58320;48.804;9.252;2023-04-25T01:36:49;8.50;72.90
70734;DHT22;58320;48.804;9.252;2023-04-25T01:39:19;8.50;73.50
70734;DHT22;58320;48.804;9.252;2023-04-25T01:41:46;8.40;73.50
70734;DHT22;58320;48.804;9.252;2023-04-25T01:44:13;8.40;73.90
70734;DHT22;58320;48.804;9.252;2023-04-25T01:46:39;8.40;73.70
70734;DHT22;58320;48.804;9.252;2023-04-25T01:49:05;8.40;73.60
70734;DHT22;58320;48.804;9.252;2023-04-25T01:51:31;8.40;73.60
70734;DHT22;58320;48.804;9.252;2023-04-25T01:53:57;8.40;73.40
70734;DHT22;58320;48.804;9.252;2023-04-25T01:56:24;8.50;73.30
70734;DHT22;58320;48.804;9.252;2023-04-25T01:58:50;8.50;73.70
70734;DHT22;58320;48.804;9.252;2023-04-25T02:01:16;8.50;73.30
70734;DHT22;58320;48.804;9.252;2023-04-25T02:03:43;8.40;73.20
70734;DHT22;58320;48.804;9.252;2023-04-25T02:06:09;8.50;73.10
70734;DHT22;58320;48.804;9.252;2023-04-25T02:08:34;8.50;73.40
70734;DHT22;58320;48.804;9.252;2023-04-25T02:11:02;8.50;73.30
70734;DHT22;58320;48.804;9.252;2023-04-25T02:13:28;8.60;73.40
70734;DHT22;58320;48.804;9.252;2023-04-25T02:15:54;8.60;73.30
70734;DHT22;58320;48.804;9.252;2023-04-25T02:18:20;8.60;73.20
70734;DHT22;58320;48.804;9.252;2023-04-25T02:20:46;8.60;73.20
70734;DHT22;58320;48.804;9.252;2023-04-25T02:23:12;8.60;73.50
70734;DHT22;58320;48.804;9.252;2023-04-25T02:25:41;8.60;73.40
70734;DHT22;58320;48.804;9.252;2023-04-25T02:28:07;8.60;73.80
70734;DHT22;58320;48.804;9.252;2023-04-25T02:30:33;8.60;73.90
70734;DHT22;58320;48.804;9.252;2023-04-25T02:32:59;8.60;74.10
70734;DHT22;58320;48.804;9.252;2023-04-25T02:35:25;8.50;74.40
70734;DHT22;58320;48.804;9.252;2023-04-25T02:37:50;8.40;74.50
70734;DHT22;58320;48.804;9.252;2023-04-25T02:40:16;8.40;74.90
70734;DHT22;58320;48.804;9.252;2023-04-25T02:42:42;8.30;74.90
70734;DHT22;58320;48.804;9.252;2023-04-25T02:45:08;8.30;75.10
70734;DHT22;58320;48.804;9.252;2023-04-25T02:47:34;8.20;75.30
70734;DHT22;58320;48.804;9.252;2023-04-25T02:50:00;8.20;75.50
70734;DHT22;58320;48.804;9.252;2023-04-25T02:52:26;8.20;76.10
70734;DHT22;58320;48.804;9.252;2023-04-25T02:54:51;8.20;76.00
70734;DHT22;58320;48.804;9.252;2023-04-25T02:57:17;8.20;76.30
70734;DHT22;58320;48.804;9.252;2023-04-25T02:59:43;8.20;76.30
70734;DHT22;58320;48.804;9.252;2023-04-25T03:02:09;8.30;76.50
70734;DHT22;58320;48.804;9.252;2023-04-25T03:04:35;8.30;76.60
70734;DHT22;58320;48.804;9.252;2023-04-25T03:07:01;8.30;76.70
70734;DHT22;58320;48.804;9.252;2023-04-25T03:09:26;8.30;76.80
70734;DHT22;58320;48.804;9.252;2023-04-25T03:11:52;8.30;76.90
70734;DHT22;58320;48.804;9.252;2023-04-25T03:14:18;8.30;77.00
70734;DHT22;58320;48.804;9.252;2023-04-25T03:16:44;8.30;77.00
70734;DHT22;58320;48.804;9.252;2023-04-25T03:19:10;8.30;76.90
70734;DHT22;58320;48.804;9.252;2023-04-25T03:21:36;8.30;76.70
70734;DHT22;58320;48.804;9.252;2023-04-25T03:24:04;8.30;75.50
70734;DHT22;58320;48.804;9.252;2023-04-25T03:26:30;8.30;74.50
70734;DHT22;58320;48.804;9.252;2023-04-25T03:28:56;8.30;73.90
70734;DHT22;58320;48.804;9.252;2023-04-25T03:31:21;8.30;73.90
70734;DHT22;58320;48.804;9.252;2023-04-25T03:33:47;8.30;74.50
70734;DHT22;58320;48.804;9.252;2023-04-25T03:36:13;8.30;74.70
70734;DHT22;58320;48.804;9.252;2023-04-25T03:38:39;8.30;74.70
70734;DHT22;58320;48.804;9.252;2023-04-25T03:41:06;8.20;74.80
70734;DHT22;58320;48.804;9.252;2023-04-25T03:43:32;8.20;75.00
70734;DHT22;58320;48.804;9.252;2023-04-25T03:45:58;8.10;75.20
70734;DHT22;58320;48.804;9.252;2023-04-25T03:48:24;8.10;75.40
70734;DHT22;58320;48.804;9.252;2023-04-25T03:50:52;8.10;75.30
70734;DHT22;58320;48.804;9.252;2023-04-25T03:53:18;8.20;75.20
70734;DHT22;58320;48.804;9.252;2023-04-25T03:55:44;8.20;75.20
70734;DHT22;58320;48.804;9.252;2023-04-25T03:58:10;8.20;75.00
70734;DHT22;58320;48.804;9.252;2023-04-25T04:00:36;8.20;74.70
70734;DHT22;58320;48.804;9.252;2023-04-25T04:03:01;8.20;74.70
70734;DHT22;58320;48.804;9.252;2023-04-25T04:05:27;8.30;74.60
70734;DHT22;58320;48.804;9.252;2023-04-25T04:07:54;8.30;74.50
70734;DHT22;58320;48.804;9.252;2023-04-25T04:10:20;8.30;74.30
70734;DHT22;58320;48.804;9.252;2023-04-25T04:12:46;8.20;74.00
70734;DHT22;58320;48.804;9.252;2023-04-25T04:15:12;8.20;74.00
70734;DHT22;58320;48.804;9.252;2023-04-25T04:17:38;8.20;74.30
70734;DHT22;58320;48.804;9.252;2023-04-25T04:20:04;8.10;74.60
70734;DHT22;58320;48.804;9.252;2023-04-25T04:22:31;8.10;74.40
70734;DHT22;58320;48.804;9.252;2023-04-25T04:24:57;8.10;74.60
70734;DHT22;58320;48.804;9.252;2023-04-25T04:27:23;8.10;74.20
70734;DHT22;58320;48.804;9.252;2023-04-25T04:29:49;8.10;73.90
70734;DHT22;58320;48.804;9.252;2023-04-25T04:32:17;8.10;74.00
70734;DHT22;58320;48.804;9.252;2023-04-25T04:34:43;8.10;74.30
70734;DHT22;58320;48.804;9.252;2023-04-25T04:37:10;8.10;74.10
70734;DHT22;58320;48.804;9.252;2023-04-25T04:39:38;8.20;74.00
70734;DHT22;58320;48.804;9.252;2023-04-25T04:42:04;8.20;74.10
70734;DHT22;58320;48.804;9.252;2023-04-25T04:44:30;8.20;74.30
70734;DHT22;58320;48.804;9.252;2023-04-25T04:46:59;8.20;74.30
70734;DHT22;58320;48.804;9.252;2023-04-25T04:49:25;8.30;74.10
70734;DHT22;58320;48.804;9.252;2023-04-25T04:51:51;8.30;73.60
70734;DHT22;58320;48.804;9.252;2023-04-25T04:54:17;8.30;73.50
70734;DHT22;58320;48.804;9.252;2023-04-25T04:56:43;8.30;73.60
70734;DHT22;58320;48.804;9.252;2023-04-25T04:59:09;8.30;73.70
70734;DHT22;58320;48.804;9.252;2023-04-25T05:01:35;8.40;73.90
70734;DHT22;58320;48.804;9.252;2023-04-25T05:04:01;8.40;73.90
70734;DHT22;58320;48.804;9.252;2023-04-25T05:06:28;8.40;74.10
70734;DHT22;58320;48.804;9.252;2023-04-25T05:08:55;8.40;73.70
70734;DHT22;58320;48.804;9.252;2023-04-25T05:11:22;8.40;73.70
70734;DHT22;58320;48.804;9.252;2023-04-25T05:13:54;8.40;74.00
70734;DHT22;58320;48.804;9.252;2023-04-25T05:16:20;8.40;74.00
70734;DHT22;58320;48.804;9.252;2023-04-25T05:18:46;8.50;73.90
70734;DHT22;58320;48.804;9.252;2023-04-25T05:21:13;8.50;73.90
70734;DHT22;58320;48.804;9.252;2023-04-25T05:23:38;8.50;73.80
70734;DHT22;58320;48.804;9.252;2023-04-25T05:26:04;8.60;73.60
70734;DHT22;58320;48.804;9.252;2023-04-25T05:28:30;8.70;73.60
70734;DHT22;58320;48.804;9.252;2023-04-25T05:30:56;8.80;72.70
70734;DHT22;58320;48.804;9.252;2023-04-25T05:33:24;8.80;72.80
70734;DHT22;58320;48.804;9.252;2023-04-25T05:35:50;8.80;72.60
70734;DHT22;58320;48.804;9.252;2023-04-25T05:38:15;8.80;72.50
70734;DHT22;58320;48.804;9.252;2023-04-25T05:40:41;8.80;72.10
70734;DHT22;58320;48.804;9.252;2023-04-25T05:43:07;8.80;72.90
70734;DHT22;58320;48.804;9.252;2023-04-25T05:45:33;8.80;74.30
70734;DHT22;58320;48.804;9.252;2023-04-25T05:47:58;8.40;75.90
70734;DHT22;58320;48.804;9.252;2023-04-25T05:50:24;8.10;79.30
70734;DHT22;58320;48.804;9.252;2023-04-25T05:52:50;7.90;83.00
70734;DHT22;58320;48.804;9.252;2023-04-25T05:55:16;7.60;86.30
70734;DHT22;58320;48.804;9.252;2023-04-25T05:57:42;7.50;89.00
70734;DHT22;58320;48.804;9.252;2023-04-25T06:00:12;7.40;90.40
70734;DHT22;58320;48.804;9.252;2023-04-25T06:02:38;7.30;90.90
70734;DHT22;58320;48.804;9.252;2023-04-25T06:05:04;7.40;92.20
70734;DHT22;58320;48.804;9.252;2023-04-25T06:07:30;7.40;92.30
70734;DHT22;58320;48.804;9.252;2023-04-25T06:09:56;7.40;91.50
70734;DHT22;58320;48.804;9.252;2023-04-25T06:12:22;7.30;90.70
70734;DHT22;58320;48.804;9.252;2023-04-25T06:14:48;7.20;90.80
70734;DHT22;58320;48.804;9.252;2023-04-25T06:17:14;7.20;91.30
70734;DHT22;58320;48.804;9.252;2023-04-25T06:19:40;7.20;90.40
70734;DHT22;58320;48.804;9.252;2023-04-25T06:22:06;7.20;90.10
70734;DHT22;58320;48.804;9.252;2023-04-25T06:24:32;7.40;86.30
70734;DHT22;58320;48.804;9.252;2023-04-25T06:26:58;7.50;83.90
70734;DHT22;58320;48.804;9.252;2023-04-25T06:29:25;7.80;84.10
70734;DHT22;58320;48.804;9.252;2023-04-25T06:31:51;8.10;81.70
70734;DHT22;58320;48.804;9.252;2023-04-25T06:34:17;8.30;80.70
70734;DHT22;58320;48.804;9.252;2023-04-25T06:36:43;8.70;77.70
70734;DHT22;58320;48.804;9.252;2023-04-25T06:39:10;8.80;75.50
70734;DHT22;58320;48.804;9.252;2023-04-25T06:41:35;9.00;73.90
70734;DHT22;58320;48.804;9.252;2023-04-25T06:44:01;9.20;74.00
70734;DHT22;58320;48.804;9.252;2023-04-25T06:46:27;9.30;72.80
70734;DHT22;58320;48.804;9.252;2023-04-25T06:48:53;9.40;72.70
70734;DHT22;58320;48.804;9.252;2023-04-25T06:51:19;9.60;72.50
70734;DHT22;58320;48.804;9.252;2023-04-25T06:53:44;9.70;72.10
70734;DHT22;58320;48.804;9.252;2023-04-25T06:56:10;9.90;72.10
70734;DHT22;58320;48.804;9.252;2023-04-25T06:58:36;10.00;69.90
70734;DHT22;58320;48.804;9.252;2023-04-25T07:01:02;10.00;70.40
70734;DHT22;58320;48.804;9.252;2023-04-25T07:03:28;10.10;68.80
70734;DHT22;58320;48.804;9.252;2023-04-25T07:05:54;10.00;68.90
70734;DHT22;58320;48.804;9.252;2023-04-25T07:08:20;10.00;69.40
70734;DHT22;58320;48.804;9.252;2023-04-25T07:10:46;9.90;68.30
70734;DHT22;58320;48.804;9.252;2023-04-25T07:13:12;9.80;68.90
70734;DHT22;58320;48.804;9.252;2023-04-25T07:15:38;9.70;69.80
70734;DHT22;58320;48.804;9.252;2023-04-25T07:18:04;9.70;70.00
70734;DHT22;58320;48.804;9.252;2023-04-25T07:20:30;9.80;70.50
70734;DHT22;58320;48.804;9.252;2023-04-25T07:22:56;9.80;70.70
70734;DHT22;58320;48.804;9.252;2023-04-25T07:25:22;9.70;70.30
70734;DHT22;58320;48.804;9.252;2023-04-25T07:27:48;9.60;70.80
70734;DHT22;58320;48.804;9.252;2023-04-25T07:30:14;9.50;71.30
70734;DHT22;58320;48.804;9.252;2023-04-25T07:32:40;9.50;73.00
70734;DHT22;58320;48.804;9.252;2023-04-25T07:35:06;9.40;73.80
70734;DHT22;58320;48.804;9.252;2023-04-25T07:37:34;9.40;74.30
70734;DHT22;58320;48.804;9.252;2023-04-25T07:40:01;9.40;74.80
70734;DHT22;58320;48.804;9.252;2023-04-25T07:42:30;9.40;74.50
70734;DHT22;58320;48.804;9.252;2023-04-25T07:44:56;9.40;74.70
70734;DHT22;58320;48.804;9.252;2023-04-25T07:47:21;9.30;73.90
70734;DHT22;58320;48.804;9.252;2023-04-25T07:49:47;9.20;74.60
70734;DHT22;58320;48.804;9.252;2023-04-25T07:52:13;9.20;74.80
70734;DHT22;58320;48.804;9.252;2023-04-25T07:54:39;9.20;75.30
70734;DHT22;58320;48.804;9.252;2023-04-25T07:57:05;9.00;76.60
70734;DHT22;58320;48.804;9.252;2023-04-25T07:59:34;8.80;80.50
70734;DHT22;58320;48.804;9.252;2023-04-25T08:02:00;8.60;83.00
70734;DHT22;58320;48.804;9.252;2023-04-25T08:04:26;8.30;85.80
70734;DHT22;58320;48.804;9.252;2023-04-25T08:06:52;8.00;88.60
70734;DHT22;58320;48.804;9.252;2023-04-25T08:09:19;7.90;90.50
70734;DHT22;58320;48.804;9.252;2023-04-25T08:11:46;7.80;92.70
70734;DHT22;58320;48.804;9.252;2023-04-25T08:14:12;7.80;93.50
70734;DHT22;58320;48.804;9.252;2023-04-25T08:16:39;7.80;94.50
70734;DHT22;58320;48.804;9.252;2023-04-25T08:19:05;7.90;95.20
70734;DHT22;58320;48.804;9.252;2023-04-25T08:21:31;8.00;95.60
70734;DHT22;58320;48.804;9.252;2023-04-25T08:23:57;8.00;95.20
70734;DHT22;58320;48.804;9.252;2023-04-25T08:26:24;7.90;94.80
70734;DHT22;58320;48.804;9.252;2023-04-25T08:28:50;7.80;94.30
70734;DHT22;58320;48.804;9.252;2023-04-25T08:31:16;7.70;95.00
70734;DHT22;58320;48.804;9.252;2023-04-25T08:33:43;7.70;96.00
70734;DHT22;58320;48.804;9.252;2023-04-25T08:36:10;7.60;96.90
70734;DHT22;58320;48.804;9.252;2023-04-25T08:38:36;7.60;97.20
70734;DHT22;58320;48.804;9.252;2023-04-25T08:41:02;7.60;97.60
70734;DHT22;58320;48.804;9.252;2023-04-25T08:43:29;7.60;98.60
70734;DHT22;58320;48.804;9.252;2023-04-25T08:45:59;7.60;99.40
70734;DHT22;58320;48.804;9.252;2023-04-25T08:48:32;7.60;98.80
70734;DHT22;58320;48.804;9.252;2023-04-25T08:50:58;7.60;99.10
70734;DHT22;58320;48.804;9.252;2023-04-25T08:53:30;7.70;98.70
70734;DHT22;58320;48.804;9.252;2023-04-25T08:55:58;7.60;97.20
70734;DHT22;58320;48.804;9.252;2023-04-25T08:58:25;7.60;97.30
70734;DHT22;58320;48.804;9.252;2023-04-25T09:00:51;7.60;98.40
70734;DHT22;58320;48.804;9.252;2023-04-25T09:03:18;7.60;98.70
70734;DHT22;58320;48.804;9.252;2023-04-25T09:05:44;7.60;98.50
70734;DHT22;58320;48.804;9.252;2023-04-25T09:08:10;7.60;99.10
70734;DHT22;58320;48.804;9.252;2023-04-25T09:10:36;7.60;99.60
70734;DHT22;58320;48.804;9.252;2023-04-25T09:15:48;7.50;99.30
70734;DHT22;58320;48.804;9.252;2023-04-25T09:18:30;7.50;99.30
70734;DHT22;58320;48.804;9.252;2023-04-25T09:21:11;7.40;99.70
70734;DHT22;58320;48.804;9.252;2023-04-25T09:23:43;7.50;99.90
70734;DHT22;58320;48.804;9.252;2023-04-25T09:26:14;7.60;99.90
70734;DHT22;58320;48.804;9.252;2023-04-25T09:28:43;7.60;99.90
70734;DHT22;58320;48.804;9.252;2023-04-25T09:31:12;7.60;99.90
70734;DHT22;58320;48.804;9.252;2023-04-25T09:33:38;7.60;99.90
70734;DHT22;58320;48.804;9.252;2023-04-25T09:36:05;7.50;99.90
70734;DHT22;58320;48.804;9.252;2023-04-25T09:38:43;7.50;99.90
70734;DHT22;58320;48.804;9.252;2023-04-25T09:41:10;7.50;99.90
70734;DHT22;58320;48.804;9.252;2023-04-25T09:43:37;7.50;99.90
70734;DHT22;58320;48.804;9.252;2023-04-25T09:46:13;7.60;99.90
70734;DHT22;58320;48.804;9.252;2023-04-25T09:48:39;7.60;99.90
70734;DHT22;58320;48.804;9.252;2023-04-25T09:51:13;7.60;99.90
70734;DHT22;58320;48.804;9.252;2023-04-25T09:53:43;7.70;99.90
70734;DHT22;58320;48.804;9.252;2023-04-25T09:56:17;7.60;99.90
70734;DHT22;58320;48.804;9.252;2023-04-25T09:58:47;7.50;99.90
70734;DHT22;58320;48.804;9.252;2023-04-25T10:01:14;7.50;99.80
70734;DHT22;58320;48.804;9.252;2023-04-25T10:03:42;7.40;99.70
70734;DHT22;58320;48.804;9.252;2023-04-25T10:06:12;7.20;99.40
70734;DHT22;58320;48.804;9.252;2023-04-25T10:08:42;7.00;98.80
70734;DHT22;58320;48.804;9.252;2023-04-25T10:11:08;6.90;99.00
70734;DHT22;58320;48.804;9.252;2023-04-25T10:13:35;6.90;99.90
70734;DHT22;58320;48.804;9.252;2023-04-25T10:16:03;6.80;99.90
70734;DHT22;58320;48.804;9.252;2023-04-25T10:18:31;6.80;99.90
70734;DHT22;58320;48.804;9.252;2023-04-25T10:21:02;6.90;99.90
70734;DHT22;58320;48.804;9.252;2023-04-25T10:23:30;7.00;99.90
70734;DHT22;58320;48.804;9.252;2023-04-25T10:25:57;7.10;99.90
70734;DHT22;58320;48.804;9.252;2023-04-25T10:28:24;7.10;99.90
70734;DHT22;58320;48.804;9.252;2023-04-25T10:31:04;7.10;99.90
70734;DHT22;58320;48.804;9.252;2023-04-25T10:33:35;7.10;99.90
70734;DHT22;58320;48.804;9.252;2023-04-25T10:36:18;7.00;99.90
70734;DHT22;58320;48.804;9.252;2023-04-25T10:38:47;6.90;99.90
70734;DHT22;58320;48.804;9.252;2023-04-25T10:41:17;6.70;99.90
70734;DHT22;58320;48.804;9.252;2023-04-25T10:43:45;6.60;99.90
70734;DHT22;58320;48.804;9.252;2023-04-25T10:48:51;6.60;99.90
70734;DHT22;58320;48.804;9.252;2023-04-25T10:51:29;6.60;99.90
70734;DHT22;58320;48.804;9.252;2023-04-25T10:53:59;6.60;99.90
70734;DHT22;58320;48.804;9.252;2023-04-25T10:56:33;6.70;99.90
70734;DHT22;58320;48.804;9.252;2023-04-25T10:59:16;6.70;99.90
70734;DHT22;58320;48.804;9.252;2023-04-25T11:01:47;6.70;99.90
70734;DHT22;58320;48.804;9.252;2023-04-25T11:04:26;6.60;99.90
70734;DHT22;58320;48.804;9.252;2023-04-25T11:10:06;6.60;99.90
70734;DHT22;58320;48.804;9.252;2023-04-25T11:12:32;6.60;99.90
70734;DHT22;58320;48.804;9.252;2023-04-25T11:15:03;6.60;99.90
70734;DHT22;58320;48.804;9.252;2023-04-25T11:17:30;6.70;99.90
70734;DHT22;58320;48.804;9.252;2023-04-25T11:19:56;6.70;99.90
70734;DHT22;58320;48.804;9.252;2023-04-25T11:22:23;6.90;99.90
70734;DHT22;58320;48.804;9.252;2023-04-25T11:24:49;7.00;99.90
70734;DHT22;58320;48.804;9.252;2023-04-25T11:27:16;7.20;99.90
70734;DHT22;58320;48.804;9.252;2023-04-25T11:29:41;7.30;99.90
70734;DHT22;58320;48.804;9.252;2023-04-25T11:32:07;7.40;99.30
70734;DHT22;58320;48.804;9.252;2023-04-25T11:34:34;7.50;99.10
70734;DHT22;58320;48.804;9.252;2023-04-25T11:37:01;7.50;96.80
70734;DHT22;58320;48.804;9.252;2023-04-25T11:39:28;7.40;97.40
70734;DHT22;58320;48.804;9.252;2023-04-25T11:41:54;7.60;98.80
70734;DHT22;58320;48.804;9.252;2023-04-25T11:44:21;7.60;96.20
70734;DHT22;58320;48.804;9.252;2023-04-25T11:46:47;7.70;97.70
70734;DHT22;58320;48.804;9.252;2023-04-25T11:49:14;7.70;94.40
70734;DHT22;58320;48.804;9.252;2023-04-25T11:51:44;7.70;95.70
70734;DHT22;58320;48.804;9.252;2023-04-25T11:54:11;7.80;97.30
70734;DHT22;58320;48.804;9.252;2023-04-25T11:56:43;7.90;96.70
70734;DHT22;58320;48.804;9.252;2023-04-25T11:59:10;7.80;96.00
70734;DHT22;58320;48.804;9.252;2023-04-25T12:01:37;8.00;98.20
70734;DHT22;58320;48.804;9.252;2023-04-25T12:04:33;8.20;98.90
70734;DHT22;58320;48.804;9.252;2023-04-25T12:06:59;8.10;92.00
70734;DHT22;58320;48.804;9.252;2023-04-25T12:09:33;8.10;91.80
70734;DHT22;58320;48.804;9.252;2023-04-25T12:12:00;8.10;92.60
70734;DHT22;58320;48.804;9.252;2023-04-25T12:14:32;8.00;93.50
70734;DHT22;58320;48.804;9.252;2023-04-25T12:17:02;8.10;92.30
70734;DHT22;58320;48.804;9.252;2023-04-25T12:19:33;8.00;92.50
70734;DHT22;58320;48.804;9.252;2023-04-25T12:22:01;8.00;92.90
70734;DHT22;58320;48.804;9.252;2023-04-25T12:24:28;7.90;92.70
70734;DHT22;58320;48.804;9.252;2023-04-25T12:27:00;7.70;94.00
70734;DHT22;58320;48.804;9.252;2023-04-25T12:29:32;7.60;95.00
70734;DHT22;58320;48.804;9.252;2023-04-25T12:31:58;7.40;94.90
70734;DHT22;58320;48.804;9.252;2023-04-25T12:34:25;7.30;95.00
70734;DHT22;58320;48.804;9.252;2023-04-25T12:36:51;7.10;95.70
70734;DHT22;58320;48.804;9.252;2023-04-25T12:39:22;7.00;97.20
70734;DHT22;58320;48.804;9.252;2023-04-25T12:41:53;7.00;98.70
70734;DHT22;58320;48.804;9.252;2023-04-25T12:44:21;7.10;99.60
70734;DHT22;58320;48.804;9.252;2023-04-25T12:46:47;7.40;99.90
70734;DHT22;58320;48.804;9.252;2023-04-25T12:49:13;7.70;99.90
70734;DHT22;58320;48.804;9.252;2023-04-25T12:51:40;8.00;99.90
70734;DHT22;58320;48.804;9.252;2023-04-25T12:54:07;8.50;99.90
70734;DHT22;58320;48.804;9.252;2023-04-25T12:56:34;9.00;95.30
70734;DHT22;58320;48.804;9.252;2023-04-25T12:59:00;9.20;92.90
70734;DHT22;58320;48.804;9.252;2023-04-25T13:01:28;9.50;87.70
70734;DHT22;58320;48.804;9.252;2023-04-25T13:03:54;9.90;84.20
70734;DHT22;58320;48.804;9.252;2023-04-25T13:06:20;10.30;83.10
70734;DHT22;58320;48.804;9.252;2023-04-25T13:08:46;10.70;82.80
70734;DHT22;58320;48.804;9.252;2023-04-25T13:11:12;10.90;80.70
70734;DHT22;58320;48.804;9.252;2023-04-25T13:13:38;11.20;81.00
70734;DHT22;58320;48.804;9.252;2023-04-25T13:16:05;11.30;80.20
70734;DHT22;58320;48.804;9.252;2023-04-25T13:18:32;11.50;76.60
70734;DHT22;58320;48.804;9.252;2023-04-25T13:20:59;11.60;78.40
70734;DHT22;58320;48.804;9.252;2023-04-25T13:23:26;11.90;77.80
70734;DHT22;58320;48.804;9.252;2023-04-25T13:25:53;12.10;78.30
70734;DHT22;58320;48.804;9.252;2023-04-25T13:28:20;12.00;77.60
70734;DHT22;58320;48.804;9.252;2023-04-25T13:30:46;12.10;79.00
70734;DHT22;58320;48.804;9.252;2023-04-25T13:33:14;12.30;77.40
70734;DHT22;58320;48.804;9.252;2023-04-25T13:35:40;12.30;74.10
70734;DHT22;58320;48.804;9.252;2023-04-25T13:38:07;11.90;74.00
70734;DHT22;58320;48.804;9.252;2023-04-25T13:40:32;11.40;76.40
70734;DHT22;58320;48.804;9.252;2023-04-25T13:42:58;11.30;78.00
70734;DHT22;58320;48.804;9.252;2023-04-25T13:45:24;11.30;74.70
70734;DHT22;58320;48.804;9.252;2023-04-25T13:47:50;11.20;73.50
70734;DHT22;58320;48.804;9.252;2023-04-25T13:50:16;10.90;72.70
70734;DHT22;58320;48.804;9.252;2023-04-25T13:52:42;10.60;75.60
70734;DHT22;58320;48.804;9.252;2023-04-25T13:55:08;10.70;75.40
70734;DHT22;58320;48.804;9.252;2023-04-25T13:57:35;10.80;72.00
70734;DHT22;58320;48.804;9.252;2023-04-25T14:00:02;10.70;73.30
70734;DHT22;58320;48.804;9.252;2023-04-25T14:02:34;10.80;73.00
70734;DHT22;58320;48.804;9.252;2023-04-25T14:05:01;11.20;72.80
70734;DHT22;58320;48.804;9.252;2023-04-25T14:07:27;11.30;70.50
70734;DHT22;58320;48.804;9.252;2023-04-25T14:09:53;11.60;68.40
70734;DHT22;58320;48.804;9.252;2023-04-25T14:12:19;11.80;67.90
70734;DHT22;58320;48.804;9.252;2023-04-25T14:14:44;12.10;68.60
70734;DHT22;58320;48.804;9.252;2023-04-25T14:17:10;12.30;65.20
70734;DHT22;58320;48.804;9.252;2023-04-25T14:19:36;12.50;64.50
70734;DHT22;58320;48.804;9.252;2023-04-25T14:22:04;13.30;63.80
70734;DHT22;58320;48.804;9.252;2023-04-25T14:24:30;13.90;60.80
70734;DHT22;58320;48.804;9.252;2023-04-25T14:26:55;14.60;58.60
70734;DHT22;58320;48.804;9.252;2023-04-25T14:29:21;14.70;58.90
70734;DHT22;58320;48.804;9.252;2023-04-25T14:31:47;14.50;58.80
70734;DHT22;58320;48.804;9.252;2023-04-25T14:34:13;15.40;58.80
70734;DHT22;58320;48.804;9.252;2023-04-25T14:36:38;16.20;53.00
70734;DHT22;58320;48.804;9.252;2023-04-25T14:39:04;16.10;54.20
70734;DHT22;58320;48.804;9.252;2023-04-25T14:41:30;15.40;52.90
70734;DHT22;58320;48.804;9.252;2023-04-25T14:43:56;14.50;55.80
70734;DHT22;58320;48.804;9.252;2023-04-25T14:46:22;14.00;58.10
70734;DHT22;58320;48.804;9.252;2023-04-25T14:48:48;13.90;58.60
70734;DHT22;58320;48.804;9.252;2023-04-25T14:51:15;13.80;59.00
70734;DHT22;58320;48.804;9.252;2023-04-25T14:53:41;13.30;58.50
70734;DHT22;58320;48.804;9.252;2023-04-25T14:56:07;13.00;61.00
70734;DHT22;58320;48.804;9.252;2023-04-25T14:58:34;13.00;62.60
70734;DHT22;58320;48.804;9.252;2023-04-25T15:01:00;13.30;61.30
70734;DHT22;58320;48.804;9.252;2023-04-25T15:03:26;13.20;59.60
70734;DHT22;58320;48.804;9.252;2023-04-25T15:05:54;13.00;61.00
70734;DHT22;58320;48.804;9.252;2023-04-25T15:08:21;12.70;63.00
70734;DHT22;58320;48.804;9.252;2023-04-25T15:10:46;12.50;63.60
70734;DHT22;58320;48.804;9.252;2023-04-25T15:13:12;12.40;64.30
70734;DHT22;58320;48.804;9.252;2023-04-25T15:15:38;12.30;63.80
70734;DHT22;58320;48.804;9.252;2023-04-25T15:18:04;12.60;63.00
70734;DHT22;58320;48.804;9.252;2023-04-25T15:20:30;13.70;58.70
70734;DHT22;58320;48.804;9.252;2023-04-25T15:22:57;15.20;56.80
70734;DHT22;58320;48.804;9.252;2023-04-25T15:25:23;17.00;52.80
70734;DHT22;58320;48.804;9.252;2023-04-25T15:27:49;17.10;49.30
70734;DHT22;58320;48.804;9.252;2023-04-25T15:30:17;17.30;49.50
70734;DHT22;58320;48.804;9.252;2023-04-25T15:32:45;17.40;49.10
70734;DHT22;58320;48.804;9.252;2023-04-25T15:35:12;18.40;46.20
70734;DHT22;58320;48.804;9.252;2023-04-25T15:37:39;18.40;47.30
70734;DHT22;58320;48.804;9.252;2023-04-25T15:40:14;17.90;46.80
70734;DHT22;58320;48.804;9.252;2023-04-25T15:42:42;16.50;48.80
70734;DHT22;58320;48.804;9.252;2023-04-25T15:45:09;15.50;52.50
70734;DHT22;58320;48.804;9.252;2023-04-25T15:47:37;14.70;53.80
70734;DHT22;58320;48.804;9.252;2023-04-25T15:50:05;14.10;54.50